createdAt,value
2023-02-14T00:01:21.493Z,101101.97
2023-02-14T00:03:52.882Z,101105.31
2023-02-14T00:06:26.208Z,101100.28
2023-02-14T00:08:59.904Z,101099.94
2023-02-14T00:11:32.378Z,101095.91
2023-02-14T00:14:21.711Z,101094.72
2023-02-14T00:16:52.250Z,101097.75
2023-02-14T00:19:25.890Z,101104.81
2023-02-14T00:21:57.503Z,101112.72
2023-02-14T00:24:28.501Z,101112.03
2023-02-14T00:26:59.405Z,101111.59
2023-02-14T00:29:32.472Z,101106.19
2023-02-14T00:32:05.092Z,101115.09
2023-02-14T00:34:37.499Z,101108.38
2023-02-14T00:37:08.485Z,101102.50
2023-02-14T00:39:39.437Z,101105.34
2023-02-14T00:42:10.433Z,101112.25
2023-02-14T00:44:41.621Z,101107.88
2023-02-14T00:47:12.700Z,101102.31
2023-02-14T00:49:43.484Z,101109.41
2023-02-14T00:52:14.337Z,101117.13
2023-02-14T00:54:44.718Z,101118.81
2023-02-14T00:57:17.359Z,101113.06
2023-02-14T00:59:48.244Z,101121.81
2023-02-14T01:02:19.999Z,101120.28
2023-02-14T01:04:51.238Z,101122.47
2023-02-14T01:07:23.962Z,101114.72
2023-02-14T01:09:58.441Z,101121.44
2023-02-14T01:12:29.436Z,101121.09
2023-02-14T01:15:00.519Z,101127.28
2023-02-14T01:17:31.261Z,101132.53
2023-02-14T01:20:02.457Z,101128.63
2023-02-14T01:22:38.116Z,101123.56
2023-02-14T01:25:08.876Z,101119.38
2023-02-14T01:27:39.252Z,101126.91
2023-02-14T01:30:11.752Z,101120.03
2023-02-14T01:32:43.337Z,101113.56
2023-02-14T01:35:14.828Z,101113.88
2023-02-14T01:37:45.191Z,101117.41
2023-02-14T01:40:19.460Z,101121.59
2023-02-14T01:42:50.358Z,101117.16
2023-02-14T01:45:24.117Z,101114.47
2023-02-14T01:47:57.806Z,101114.97
2023-02-14T01:50:33.547Z,101104.84
2023-02-14T01:53:13.950Z,101103.63
2023-02-14T01:55:48.085Z,101107.50
2023-02-14T01:58:27.061Z,101107.81
2023-02-14T02:01:01.191Z,101102.91
2023-02-14T02:03:36.946Z,101098.34
2023-02-14T02:06:19.580Z,101093.72
2023-02-14T02:09:12.724Z,101097.75
2023-02-14T02:11:45.126Z,101092.34
2023-02-14T02:14:22.696Z,101084.53
2023-02-14T02:17:34.231Z,101090.09
2023-02-14T02:20:23.380Z,101087.59
2023-02-14T02:23:23.883Z,101076.75
2023-02-14T02:26:19.264Z,101085.50
2023-02-14T02:29:08.368Z,101070.78
2023-02-14T02:31:56.697Z,101063.66
2023-02-14T02:34:55.120Z,101057.72
2023-02-14T02:37:53.684Z,101040.78
2023-02-14T02:41:03.638Z,101045.16
2023-02-14T02:44:09.226Z,101036.34
2023-02-14T02:46:51.067Z,101045.47
2023-02-14T02:50:02.751Z,101051.81
2023-02-14T02:53:09.066Z,101032.47
2023-02-14T02:56:08.346Z,101039.53
2023-02-14T02:59:01.102Z,101035.81
2023-02-14T03:01:39.190Z,101037.00
2023-02-14T03:04:31.265Z,101033.56
2023-02-14T03:07:02.475Z,101024.44
2023-02-14T03:09:33.973Z,101026.84
2023-02-14T03:12:34.766Z,101025.75
2023-02-14T03:15:29.683Z,101016.03
2023-02-14T03:18:30.418Z,101014.16
2023-02-14T03:21:07.629Z,101006.75
2023-02-14T03:23:56.342Z,100996.84
2023-02-14T03:26:39.147Z,101000.56
2023-02-14T03:29:33.519Z,101000.19
2023-02-14T03:32:16.615Z,100994.41
2023-02-14T03:35:19.307Z,100980.41
2023-02-14T03:37:57.077Z,100978.72
2023-02-14T03:40:45.170Z,100976.63
2023-02-14T03:43:27.622Z,100964.94
2023-02-14T03:46:11.533Z,100968.03
2023-02-14T03:48:42.714Z,100966.91
2023-02-14T03:51:15.477Z,100951.69
2023-02-14T03:53:57.748Z,100952.63
2023-02-14T03:56:39.061Z,100949.53
2023-02-14T03:59:17.834Z,100943.78
2023-02-14T04:01:56.764Z,100937.28
2023-02-14T04:04:30.232Z,100936.13
2023-02-14T04:07:01.671Z,100934.63
2023-02-14T04:09:32.156Z,100945.06
2023-02-14T04:12:02.964Z,100916.84
2023-02-14T04:14:35.402Z,100911.03
2023-02-14T04:17:24.720Z,100914.38
2023-02-14T04:19:56.000Z,100901.88
2023-02-14T04:22:27.543Z,100908.06
2023-02-14T04:24:58.546Z,100896.22
2023-02-14T04:27:32.225Z,100883.97
2023-02-14T04:30:03.005Z,100879.84
2023-02-14T04:32:33.736Z,100878.81
2023-02-14T04:35:04.503Z,100876.59
2023-02-14T04:37:35.975Z,100860.00
2023-02-14T04:40:08.050Z,100860.69
2023-02-14T04:42:39.639Z,100855.91
2023-02-14T04:45:10.896Z,100844.28
2023-02-14T04:47:42.031Z,100854.53
2023-02-14T04:50:13.656Z,100836.63
2023-02-14T04:52:44.084Z,100829.81
2023-02-14T04:55:23.232Z,100830.63
2023-02-14T04:57:53.728Z,100826.06
2023-02-14T05:00:25.200Z,100820.25
2023-02-14T05:02:56.210Z,100818.66
2023-02-14T05:05:27.158Z,100807.81
2023-02-14T05:07:58.728Z,100805.13
2023-02-14T05:10:30.183Z,100800.31
2023-02-14T05:13:02.994Z,100795.53
2023-02-14T05:15:33.934Z,100793.25
2023-02-14T05:18:06.673Z,100788.66
2023-02-14T05:20:38.006Z,100772.00
2023-02-14T05:23:14.587Z,100776.78
2023-02-14T05:25:45.311Z,100768.88
2023-02-14T05:28:16.579Z,100768.03
2023-02-14T05:30:47.182Z,100756.56
2023-02-14T05:33:17.924Z,100753.25
2023-02-14T05:35:48.643Z,100754.44
2023-02-14T05:38:19.958Z,100749.47
2023-02-14T05:40:51.288Z,100750.13
2023-02-14T05:43:22.815Z,100746.59
2023-02-14T05:45:55.178Z,100741.19
2023-02-14T05:48:26.336Z,100744.91
2023-02-14T05:50:57.078Z,100749.09
2023-02-14T05:53:28.691Z,100747.84
2023-02-14T05:56:08.863Z,100733.47
2023-02-14T05:58:40.130Z,100728.25
2023-02-14T06:01:11.097Z,100719.28
2023-02-14T06:03:41.965Z,100719.72
2023-02-14T06:06:12.989Z,100716.34
2023-02-14T06:08:43.970Z,100716.16
2023-02-14T06:11:18.015Z,100708.03
2023-02-14T06:13:51.876Z,100714.69
2023-02-14T06:16:22.487Z,100709.91
2023-02-14T06:18:53.249Z,100711.81
2023-02-14T06:21:23.796Z,100711.19
2023-02-14T06:23:54.476Z,100712.84
2023-02-14T06:26:28.806Z,100703.25
2023-02-14T06:29:00.542Z,100703.44
2023-02-14T06:31:32.421Z,100693.44
2023-02-14T06:34:03.329Z,100694.06
2023-02-14T06:36:33.731Z,100696.78
2023-02-14T06:39:04.804Z,100686.16
2023-02-14T06:41:35.708Z,100687.38
2023-02-14T06:44:06.545Z,100681.13
2023-02-14T06:46:37.496Z,100683.00
2023-02-14T06:49:10.697Z,100687.78
2023-02-14T06:51:41.149Z,100687.78
2023-02-14T06:54:12.578Z,100686.53
2023-02-14T06:56:53.312Z,100676.50
2023-02-14T06:59:24.571Z,100677.34
2023-02-14T07:01:55.836Z,100669.66
2023-02-14T07:04:27.124Z,100668.38
2023-02-14T07:06:58.228Z,100673.59
2023-02-14T07:09:28.867Z,100671.94
2023-02-14T07:11:59.579Z,100661.09
2023-02-14T07:14:30.605Z,100666.50
2023-02-14T07:17:02.191Z,100663.19
2023-02-14T07:19:33.175Z,100654.44
2023-02-14T07:22:04.706Z,100657.13
2023-02-14T07:24:35.262Z,100649.63
2023-02-14T07:27:06.019Z,100649.19
2023-02-14T07:29:37.016Z,100650.25
2023-02-14T07:32:08.014Z,100653.16
2023-02-14T07:34:38.717Z,100656.09
2023-02-14T07:37:11.446Z,100653.78
2023-02-14T07:39:42.321Z,100654.00
2023-02-14T07:42:13.550Z,100659.84
2023-02-14T07:44:46.191Z,100654.44
2023-02-14T07:47:17.306Z,100662.34
2023-02-14T07:49:47.718Z,100664.66
2023-02-14T07:52:19.189Z,100659.41
2023-02-14T07:54:50.115Z,100660.47
2023-02-14T07:57:21.071Z,100657.75
2023-02-14T07:59:51.981Z,100653.16
2023-02-14T08:02:22.557Z,100658.19
2023-02-14T08:04:54.314Z,100651.28
2023-02-14T08:07:25.106Z,100652.34
2023-02-14T08:09:55.743Z,100656.91
2023-02-14T08:12:44.675Z,100660.47
2023-02-14T08:15:41.870Z,100662.34
2023-02-14T08:18:13.014Z,100667.56
2023-02-14T08:20:44.905Z,100674.03
2023-02-14T08:23:16.012Z,100678.84
2023-02-14T08:25:48.192Z,100685.69
2023-02-14T08:28:20.752Z,100684.88
2023-02-14T08:30:51.530Z,100688.22
2023-02-14T08:33:23.024Z,100686.53
2023-02-14T08:35:56.067Z,100691.13
2023-02-14T08:38:26.691Z,100699.06
2023-02-14T08:41:08.312Z,100701.13
2023-02-14T08:43:40.551Z,100702.81
2023-02-14T08:46:13.218Z,100711.13
2023-02-14T08:48:44.539Z,100711.13
2023-02-14T08:51:17.859Z,100716.56
2023-02-14T08:53:51.778Z,100721.16
2023-02-14T08:56:23.857Z,100724.50
2023-02-14T08:58:55.808Z,100728.25
2023-02-14T09:01:27.596Z,100725.75
2023-02-14T09:03:59.072Z,100728.88
2023-02-14T09:06:29.670Z,100726.38
2023-02-14T09:09:02.477Z,100734.09
2023-02-14T09:11:33.935Z,100733.69
2023-02-14T09:14:07.510Z,100727.84
2023-02-14T09:16:40.776Z,100738.06
2023-02-14T09:19:11.648Z,100740.34
2023-02-14T09:21:42.825Z,100748.28
2023-02-14T09:24:14.096Z,100749.34
2023-02-14T09:26:45.319Z,100748.72
2023-02-14T09:29:17.112Z,100749.94
2023-02-14T09:31:47.851Z,100751.19
2023-02-14T09:34:19.006Z,100762.03
2023-02-14T09:37:08.151Z,100758.69
2023-02-14T09:39:39.828Z,100764.13
2023-02-14T09:42:13.745Z,100775.38
2023-02-14T09:44:49.369Z,100782.88
2023-02-14T09:47:53.114Z,100777.88
2023-02-14T09:50:55.593Z,100787.66
2023-02-14T09:53:35.988Z,100777.66
2023-02-14T09:56:15.774Z,100785.78
2023-02-14T09:58:55.516Z,100792.88
2023-02-14T10:01:51.118Z,100796.19
2023-02-14T10:04:38.202Z,100796.19
2023-02-14T10:07:24.698Z,100811.19
2023-02-14T10:10:05.443Z,100802.03
2023-02-14T10:12:35.958Z,100810.38
2023-02-14T10:15:14.084Z,100814.94
2023-02-14T10:17:59.025Z,100820.38
2023-02-14T10:20:37.418Z,100826.19
2023-02-14T10:23:32.086Z,100834.94
2023-02-14T10:26:09.229Z,100839.97
2023-02-14T10:28:50.163Z,100835.13
2023-02-14T10:32:02.947Z,100846.59
2023-02-14T10:34:46.783Z,100851.19
2023-02-14T10:37:22.742Z,100865.56
2023-02-14T10:40:23.130Z,100869.88
2023-02-14T10:43:09.044Z,100874.50
2023-02-14T10:46:00.821Z,100882.78
2023-02-14T10:48:45.564Z,100885.25
2023-02-14T10:51:41.052Z,100895.69
2023-02-14T10:54:30.263Z,100901.72
2023-02-14T10:57:17.667Z,100895.06
2023-02-14T11:00:11.962Z,100911.06
2023-02-14T11:02:45.965Z,100900.03
2023-02-14T11:05:30.344Z,100896.25
2023-02-14T11:08:29.188Z,100904.44
2023-02-14T11:11:12.504Z,100906.44
2023-02-14T11:13:46.322Z,100911.88
2023-02-14T11:16:31.760Z,100913.69
2023-02-14T11:19:21.657Z,100906.44
2023-02-14T11:21:54.078Z,100912.28
2023-02-14T11:24:40.794Z,100908.75
2023-02-14T11:27:12.206Z,100916.00
2023-02-14T11:29:42.853Z,100913.53
2023-02-14T11:32:21.245Z,100916.81
2023-02-14T11:35:05.016Z,100921.81
2023-02-14T11:37:48.507Z,100931.84
2023-02-14T11:40:46.816Z,100932.63
2023-02-14T11:43:17.466Z,100932.03
2023-02-14T11:45:50.357Z,100935.13
2023-02-14T11:48:36.547Z,100948.03
2023-02-14T11:51:11.232Z,100961.56
2023-02-14T11:53:57.210Z,100965.13
2023-02-14T11:57:05.720Z,100968.41
2023-02-14T11:59:40.422Z,100976.53
2023-02-14T12:02:40.028Z,100977.16
2023-02-14T12:05:31.625Z,100975.25
2023-02-14T12:08:05.266Z,100974.22
2023-02-14T12:10:40.522Z,100977.97
2023-02-14T12:13:20.245Z,100980.88
2023-02-14T12:15:55.169Z,100980.03
2023-02-14T12:18:47.131Z,100987.09
2023-02-14T12:21:43.689Z,100990.22
2023-02-14T12:24:34.354Z,100983.50
2023-02-14T12:27:23.529Z,100992.28
2023-02-14T12:30:16.245Z,100989.13
2023-02-14T12:32:52.703Z,100989.97
2023-02-14T12:35:43.415Z,100999.16
2023-02-14T12:38:14.938Z,101005.31
2023-02-14T12:41:05.531Z,101005.75
2023-02-14T12:43:51.615Z,101012.00
2023-02-14T12:46:37.471Z,101011.78
2023-02-14T12:49:29.897Z,101017.03
2023-02-14T12:52:19.126Z,101018.09
2023-02-14T12:55:05.010Z,101021.16
2023-02-14T12:57:42.148Z,101027.59
2023-02-14T13:00:16.297Z,101023.22
2023-02-14T13:03:00.254Z,101024.91
2023-02-14T13:05:52.411Z,101021.53
2023-02-14T13:08:31.105Z,101033.34
2023-02-14T13:11:28.012Z,101032.75
2023-02-14T13:14:10.939Z,101036.50
2023-02-14T13:17:13.795Z,101041.91
2023-02-14T13:20:05.238Z,101047.50
2023-02-14T13:22:37.881Z,101056.88
2023-02-14T13:25:22.836Z,101060.59
2023-02-14T13:27:54.440Z,101059.56
2023-02-14T13:30:37.857Z,101049.78
2023-02-14T13:33:35.158Z,101064.34
2023-02-14T13:36:09.493Z,101060.97
2023-02-14T13:38:49.185Z,101067.22
2023-02-14T13:41:20.659Z,101062.66
2023-02-14T13:44:03.456Z,101072.84
2023-02-14T13:46:33.780Z,101078.25
2023-02-14T13:49:22.993Z,101068.47
2023-02-14T13:51:56.943Z,101068.84
2023-02-14T13:54:31.133Z,101064.47
2023-02-14T13:57:04.350Z,101062.13
2023-02-14T13:59:36.685Z,101063.81
2023-02-14T14:02:30.313Z,101060.06
2023-02-14T14:05:01.643Z,101055.88
2023-02-14T14:07:32.712Z,101070.81
2023-02-14T14:10:05.208Z,101066.25
2023-02-14T14:12:36.130Z,101066.25
2023-02-14T14:15:07.161Z,101065.63
2023-02-14T14:17:40.207Z,101061.22
2023-02-14T14:20:22.010Z,101073.09
2023-02-14T14:22:58.347Z,101077.84
2023-02-14T14:25:43.108Z,101069.47
2023-02-14T14:28:24.022Z,101073.84
2023-02-14T14:30:57.353Z,101075.53
2023-02-14T14:33:31.430Z,101069.66
2023-02-14T14:36:08.196Z,101069.13
2023-02-14T14:38:53.985Z,101069.72
2023-02-14T14:41:33.465Z,101060.69
2023-02-14T14:44:06.444Z,101058.97
2023-02-14T14:46:36.808Z,101067.56
2023-02-14T14:49:11.394Z,101056.84
2023-02-14T14:51:42.043Z,101068.38
2023-02-14T14:54:22.298Z,101074.16
2023-02-14T14:56:59.262Z,101078.94
2023-02-14T14:59:38.236Z,101075.59
2023-02-14T15:02:25.355Z,101079.66
2023-02-14T15:04:56.266Z,101072.97
2023-02-14T15:07:31.551Z,101070.78
2023-02-14T15:10:02.967Z,101074.06
2023-02-14T15:12:51.514Z,101077.94
2023-02-14T15:15:22.076Z,101076.44
2023-02-14T15:18:08.568Z,101070.19
2023-02-14T15:20:40.494Z,101071.78
2023-02-14T15:23:23.412Z,101075.50
2023-02-14T15:25:54.090Z,101068.41
2023-02-14T15:28:33.368Z,101066.75
2023-02-14T15:31:06.801Z,101068.13
2023-02-14T15:33:38.110Z,101067.47
2023-02-14T15:36:20.485Z,101066.16
2023-02-14T15:38:55.228Z,101069.84
2023-02-14T15:41:27.900Z,101061.09
2023-02-14T15:43:59.279Z,101069.38
2023-02-14T15:46:36.692Z,101068.50
2023-02-14T15:49:10.613Z,101075.94
2023-02-14T15:51:42.637Z,101071.25
2023-02-14T15:54:47.385Z,101070.38
2023-02-14T15:57:26.445Z,101069.22
2023-02-14T15:59:57.662Z,101065.88
2023-02-14T16:02:30.155Z,101066.06
2023-02-14T16:05:22.866Z,101067.75
2023-02-14T16:08:04.452Z,101071.63
2023-02-14T16:10:37.700Z,101073.66
2023-02-14T16:13:20.457Z,101067.25
2023-02-14T16:16:06.098Z,101061.53
2023-02-14T16:18:48.648Z,101071.97
2023-02-14T16:21:25.343Z,101069.63
2023-02-14T16:24:12.814Z,101068.63
2023-02-14T16:26:45.239Z,101065.59
2023-02-14T16:29:23.618Z,101069.16
2023-02-14T16:32:15.163Z,101060.22
2023-02-14T16:34:48.318Z,101060.22
2023-02-14T16:37:27.637Z,101066.81
2023-02-14T16:40:01.493Z,101062.59
2023-02-14T16:42:33.688Z,101066.69
2023-02-14T16:45:04.186Z,101073.13
2023-02-14T16:47:37.533Z,101075.16
2023-02-14T16:50:11.048Z,101062.03
2023-02-14T16:52:42.903Z,101063.44
2023-02-14T16:55:18.336Z,101067.16
2023-02-14T16:57:51.005Z,101067.81
2023-02-14T17:00:22.963Z,101063.44
2023-02-14T17:03:04.365Z,101066.28
2023-02-14T17:05:36.456Z,101058.56
2023-02-14T17:08:09.130Z,101062.47
2023-02-14T17:10:41.273Z,101050.16
2023-02-14T17:13:12.366Z,101052.19
2023-02-14T17:15:44.171Z,101055.06
2023-02-14T17:18:17.667Z,101048.34
2023-02-14T17:20:57.201Z,101050.03
2023-02-14T17:23:32.048Z,101043.97
2023-02-14T17:26:03.036Z,101037.94
2023-02-14T17:28:34.184Z,101039.97
2023-02-14T17:31:08.155Z,101041.31
2023-02-14T17:33:40.040Z,101043.66
2023-02-14T17:36:13.658Z,101025.97
2023-02-14T17:38:44.887Z,101026.16
2023-02-14T17:41:22.758Z,101024.50
2023-02-14T17:44:01.252Z,101025.50
2023-02-14T17:46:33.071Z,101023.16
2023-02-14T17:49:07.745Z,101021.97
2023-02-14T17:51:38.611Z,101015.25
2023-02-14T17:54:09.257Z,101005.31
2023-02-14T17:56:40.395Z,101009.03
2023-02-14T17:59:11.500Z,101007.34
2023-02-14T18:01:42.499Z,101002.31
2023-02-14T18:04:12.954Z,100996.25
2023-02-14T18:06:44.119Z,101002.66
2023-02-14T18:09:15.161Z,101002.66
2023-02-14T18:11:46.905Z,100995.94
2023-02-14T18:14:17.912Z,100994.25
2023-02-14T18:16:49.053Z,100992.56
2023-02-14T18:19:20.130Z,100981.97
2023-02-14T18:21:50.647Z,100989.22
2023-02-14T18:24:21.600Z,100975.22
2023-02-14T18:26:54.877Z,100975.41
2023-02-14T18:29:25.522Z,100973.91
2023-02-14T18:31:56.202Z,100970.38
2023-02-14T18:34:30.073Z,100974.94
2023-02-14T18:37:02.795Z,100977.78
2023-02-14T18:39:34.516Z,100972.06
2023-02-14T18:42:06.317Z,100970.03
2023-02-14T18:44:37.456Z,100976.78
2023-02-14T18:47:09.081Z,100975.13
2023-02-14T18:49:39.602Z,100982.19
2023-02-14T18:52:10.137Z,100971.09
2023-02-14T18:54:40.618Z,100975.47
2023-02-14T18:57:11.776Z,100971.09
2023-02-14T18:59:42.219Z,100965.38
2023-02-14T19:02:13.360Z,100971.44
2023-02-14T19:04:44.345Z,100969.09
2023-02-14T19:07:17.171Z,100965.72
2023-02-14T19:09:49.982Z,100965.72
2023-02-14T19:12:20.660Z,100958.66
2023-02-14T19:14:54.552Z,100960.53
2023-02-14T19:17:25.180Z,100958.84
2023-02-14T19:20:09.414Z,100951.59
2023-02-14T19:22:43.420Z,100956.31
2023-02-14T19:25:13.680Z,100960.00
2023-02-14T19:27:44.417Z,100961.03
2023-02-14T19:30:16.036Z,100961.03
2023-02-14T19:32:46.815Z,100962.22
2023-02-14T19:35:17.624Z,100976.50
2023-02-14T19:37:54.421Z,100962.56
2023-02-14T19:40:27.850Z,100964.59
2023-02-14T19:42:58.486Z,100960.88
2023-02-14T19:45:33.298Z,100969.13
2023-02-14T19:48:04.561Z,100969.13
2023-02-14T19:50:34.985Z,100967.44
2023-02-14T19:53:05.773Z,100952.50
2023-02-14T19:55:36.504Z,100957.03
2023-02-14T19:58:07.522Z,100964.25
2023-02-14T20:00:39.053Z,100959.22
2023-02-14T20:03:10.915Z,100962.75
2023-02-14T20:05:41.800Z,100967.44
2023-02-14T20:08:12.469Z,100957.69
2023-02-14T20:10:42.894Z,100966.78
2023-02-14T20:13:13.807Z,100965.09
2023-02-14T20:15:47.610Z,100970.47
2023-02-14T20:18:18.697Z,100969.13
2023-02-14T20:21:04.577Z,100972.66
2023-02-14T20:23:38.543Z,100978.19
2023-02-14T20:26:16.342Z,100982.56
2023-02-14T20:28:49.761Z,100985.59
2023-02-14T20:31:20.835Z,100983.09
2023-02-14T20:33:54.486Z,100986.78
2023-02-14T20:36:28.746Z,100979.53
2023-02-14T20:39:01.772Z,100993.00
2023-02-14T20:41:35.392Z,100991.31
2023-02-14T20:44:14.194Z,100994.38
2023-02-14T20:46:49.521Z,100995.38
2023-02-14T20:49:20.901Z,100997.41
2023-02-14T20:51:53.216Z,100995.72
2023-02-14T20:54:28.316Z,101005.63
2023-02-14T20:56:59.226Z,101011.19
2023-02-14T20:59:30.380Z,101010.19
2023-02-14T21:02:01.346Z,101009.50
2023-02-14T21:04:32.010Z,101013.34
2023-02-14T21:07:08.616Z,101019.91
2023-02-14T21:09:39.888Z,101025.31
2023-02-14T21:12:18.616Z,101025.31
2023-02-14T21:14:49.766Z,101027.31
2023-02-14T21:17:20.795Z,101029.00
2023-02-14T21:19:54.000Z,101027.47
2023-02-14T21:22:29.727Z,101026.47
2023-02-14T21:25:00.104Z,101024.78
2023-02-14T21:27:33.819Z,101033.03
2023-02-14T21:30:08.246Z,101030.69
2023-02-14T21:32:39.025Z,101036.06
2023-02-14T21:35:10.130Z,101039.56
2023-02-14T21:37:40.546Z,101042.44
2023-02-14T21:40:11.662Z,101055.22
2023-02-14T21:42:45.480Z,101061.59
2023-02-14T21:45:34.195Z,101073.34
2023-02-14T21:48:23.316Z,101080.75
2023-02-14T21:50:54.651Z,101075.38
2023-02-14T21:53:25.825Z,101080.06
2023-02-14T21:55:56.170Z,101082.75
2023-02-14T21:58:26.907Z,101081.06
2023-02-14T22:00:57.477Z,101089.28
2023-02-14T22:03:30.365Z,101093.16
2023-02-14T22:06:08.248Z,101104.59
2023-02-14T22:08:38.809Z,101112.31
2023-02-14T22:11:12.363Z,101110.63
2023-02-14T22:13:43.637Z,101128.78
2023-02-14T22:16:17.132Z,101125.06
2023-02-14T22:18:51.189Z,101125.41
2023-02-14T22:21:27.488Z,101122.53
2023-02-14T22:23:58.194Z,101131.47
2023-02-14T22:26:31.393Z,101134.47
2023-02-14T22:29:03.784Z,101135.47
2023-02-14T22:31:44.592Z,101141.00
2023-02-14T22:34:21.600Z,101143.88
2023-02-14T22:36:53.453Z,101143.69
2023-02-14T22:39:24.363Z,101140.16
2023-02-14T22:41:55.222Z,101160.00
2023-02-14T22:44:26.127Z,101144.97
2023-02-14T22:46:56.904Z,101145.22
2023-02-14T22:49:27.625Z,101150.59
2023-02-14T22:51:58.031Z,101150.59
2023-02-14T22:54:29.046Z,101155.97
2023-02-14T22:57:00.915Z,101151.59
2023-02-14T22:59:33.182Z,101150.91
2023-02-14T23:02:04.460Z,101153.44
2023-02-14T23:04:35.463Z,101149.91
2023-02-14T23:07:06.958Z,101151.75
2023-02-14T23:09:40.305Z,101162.50
2023-02-14T23:12:30.387Z,101164.03
2023-02-14T23:15:18.935Z,101168.56
2023-02-14T23:18:07.842Z,101168.41
2023-02-14T23:20:57.165Z,101162.84
2023-02-14T23:23:34.485Z,101166.91
2023-02-14T23:26:05.387Z,101167.75
2023-02-14T23:28:45.565Z,101179.88
2023-02-14T23:31:16.279Z,101178.34
2023-02-14T23:33:47.755Z,101167.44
2023-02-14T23:36:19.058Z,101180.22
2023-02-14T23:38:49.672Z,101184.22
2023-02-14T23:41:38.272Z,101183.56
2023-02-14T23:44:09.396Z,101184.56
2023-02-14T23:46:39.844Z,101189.63
2023-02-14T23:49:10.767Z,101191.31
2023-02-14T23:51:41.798Z,101198.38
2023-02-14T23:54:13.021Z,101198.19
2023-02-14T23:56:44.393Z,101192.81
2023-02-14T23:59:23.661Z,101201.44
